Time;durP1;ratioP1;P1;durP2;ratioP2;P2;SDS_P1;SDS_P2;PMS_P1;PMS_P2;Temp;Humidity;BMP_temperature;BMP_pressure;BME280_temperature;BME280_humidity;BME280_pressure;Samples;Min_cycle;Max_cycle;Signal;HPM_P1;HPM_P2
2020/12/31 00:01:26;;;;;;;16.33;3.58;;;16.20;55.70;;;;;;5042732;28;20021;-76
2020/12/31 00:03:53;;;;;;;11.02;2.58;;;16.10;55.50;;;;;;5032236;28;20048;-75
2020/12/31 00:06:20;;;;;;;13.90;3.10;;;16.10;55.00;;;;;;5038046;28;20036;-76
2020/12/31 00:08:47;;;;;;;9.70;4.05;;;16.00;55.30;;;;;;5033273;28;20482;-76
2020/12/31 00:11:13;;;;;;;9.50;2.20;;;15.90;55.30;;;;;;5038767;28;20025;-76
2020/12/31 00:13:41;;;;;;;17.83;4.03;;;15.80;55.70;;;;;;5036155;28;20026;-76
2020/12/31 00:16:07;;;;;;;13.15;2.97;;;15.50;56.00;;;;;;5036019;28;20037;-75
2020/12/31 00:18:33;;;;;;;12.85;2.15;;;15.50;56.30;;;;;;5047057;28;20091;-76
2020/12/31 00:21:00;;;;;;;10.18;3.28;;;15.50;56.30;;;;;;5042326;28;20359;-76
2020/12/31 00:23:26;;;;;;;13.13;2.78;;;15.50;56.10;;;;;;5036030;28;20094;-75
2020/12/31 00:25:54;;;;;;;9.90;3.40;;;15.50;55.80;;;;;;5038995;28;20024;-75
2020/12/31 00:28:22;;;;;;;12.80;2.60;;;15.50;56.10;;;;;;5037463;28;20513;-75
2020/12/31 00:30:49;;;;;;;11.98;3.17;;;15.40;56.20;;;;;;5036565;28;20030;-74
2020/12/31 00:33:17;;;;;;;14.48;3.00;;;15.30;56.00;;;;;;5038306;28;20029;-76
2020/12/31 00:35:45;;;;;;;14.40;2.78;;;15.20;56.10;;;;;;5035340;28;20033;-74
2020/12/31 00:38:12;;;;;;;6.00;2.53;;;15.00;56.70;;;;;;5039026;28;20044;-74
2020/12/31 00:40:38;;;;;;;8.48;2.95;;;14.80;57.20;;;;;;5039612;28;20033;-75
2020/12/31 00:43:05;;;;;;;7.65;2.03;;;14.60;57.60;;;;;;5036364;28;20037;-75
2020/12/31 00:45:31;;;;;;;10.05;2.42;;;14.80;57.30;;;;;;5041606;28;20017;-74
2020/12/31 00:47:57;;;;;;;7.45;2.30;;;14.80;57.00;;;;;;5040609;28;20095;-74
2020/12/31 00:50:24;;;;;;;12.40;3.28;;;14.70;57.10;;;;;;5036443;28;20025;-75
2020/12/31 00:52:51;;;;;;;11.13;2.20;;;14.80;57.10;;;;;;5040764;28;20091;-75
2020/12/31 00:55:18;;;;;;;5.40;2.35;;;14.80;56.80;;;;;;5042668;28;20032;-74
2020/12/31 00:57:44;;;;;;;12.65;2.28;;;14.80;56.60;;;;;;5035474;28;20021;-74
2020/12/31 01:00:13;;;;;;;7.85;2.50;;;15.00;56.30;;;;;;5036570;28;20037;-75
2020/12/31 01:02:39;;;;;;;8.88;2.85;;;14.80;56.30;;;;;;5033673;28;20036;-75
2020/12/31 01:05:09;;;;;;;10.55;2.75;;;14.70;56.90;;;;;;5030795;28;20416;-74
2020/12/31 01:07:36;;;;;;;11.02;2.13;;;14.60;57.10;;;;;;5028216;28;20041;-74
2020/12/31 01:10:08;;;;;;;6.10;2.33;;;14.50;57.40;;;;;;5035855;28;20363;-75
2020/12/31 01:12:35;;;;;;;9.02;2.13;;;14.30;58.00;;;;;;5034598;28;20108;-75
2020/12/31 01:15:02;;;;;;;5.78;2.30;;;14.40;57.60;;;;;;5032901;28;20495;-75
2020/12/31 01:17:28;;;;;;;7.28;1.67;;;14.20;58.10;;;;;;5036344;28;20024;-75
2020/12/31 01:19:55;;;;;;;12.02;2.40;;;14.20;58.30;;;;;;5037596;28;20025;-75
2020/12/31 01:22:21;;;;;;;5.70;2.17;;;14.10;58.80;;;;;;5031608;28;20415;-75
2020/12/31 01:24:48;;;;;;;7.43;3.28;;;14.10;59.00;;;;;;5037891;28;20021;-74
2020/12/31 01:27:14;;;;;;;7.28;2.90;;;13.90;59.70;;;;;;5027458;28;20063;-75
2020/12/31 01:29:41;;;;;;;9.57;3.05;;;13.90;59.30;;;;;;5036684;28;20410;-75
2020/12/31 01:32:08;;;;;;;11.48;3.08;;;13.90;59.80;;;;;;5035140;28;20084;-76
2020/12/31 01:34:35;;;;;;;7.50;2.85;;;13.80;59.70;;;;;;5032230;28;20049;-75
2020/12/31 01:37:02;;;;;;;11.55;2.80;;;14.00;59.20;;;;;;5035190;28;20017;-75
2020/12/31 01:39:29;;;;;;;10.50;2.53;;;14.00;59.30;;;;;;5026632;28;20036;-75
2020/12/31 01:42:05;;;;;;;6.10;2.17;;;14.00;59.70;;;;;;5029522;28;20359;-75
2020/12/31 01:44:31;;;;;;;9.27;1.83;;;14.00;59.40;;;;;;5026271;28;20040;-75
2020/12/31 01:47:01;;;;;;;8.80;2.58;;;14.20;59.00;;;;;;5037782;28;20082;-75
2020/12/31 01:49:32;;;;;;;9.95;2.47;;;14.30;58.40;;;;;;5036237;28;20034;-74
2020/12/31 01:52:00;;;;;;;7.53;2.42;;;14.30;58.50;;;;;;5051032;28;20025;-75
2020/12/31 01:54:26;;;;;;;7.60;1.75;;;14.30;59.20;;;;;;5037608;28;20033;-75
2020/12/31 01:56:57;;;;;;;12.70;2.83;;;14.50;58.30;;;;;;5035792;28;20029;-74
2020/12/31 01:59:24;;;;;;;6.95;1.90;;;14.40;58.10;;;;;;5037686;28;20029;-74
2020/12/31 02:01:52;;;;;;;17.10;3.15;;;14.50;58.40;;;;;;5041009;28;20033;-74
2020/12/31 02:04:19;;;;;;;7.30;2.30;;;14.50;58.70;;;;;;5045368;28;20025;-73
2020/12/31 02:06:46;;;;;;;11.52;3.25;;;14.40;58.10;;;;;;5036929;28;20367;-73
2020/12/31 02:09:13;;;;;;;9.07;1.98;;;14.40;58.60;;;;;;5037992;28;20033;-74
2020/12/31 02:11:40;;;;;;;6.57;2.38;;;14.30;58.80;;;;;;5035358;28;20443;-74
2020/12/31 02:14:06;;;;;;;8.13;1.92;;;14.20;58.90;;;;;;5036516;28;20040;-74
2020/12/31 02:16:38;;;;;;;9.63;1.83;;;14.20;59.60;;;;;;5038055;28;20482;-74
2020/12/31 02:19:15;;;;;;;16.77;2.97;;;14.30;59.10;;;;;;5036465;28;20080;-73
2020/12/31 02:21:52;;;;;;;7.32;2.65;;;14.30;58.90;;;;;;5041480;28;20017;-74
2020/12/31 02:24:19;;;;;;;9.85;2.15;;;14.40;59.10;;;;;;5035639;28;20037;-74
2020/12/31 02:26:48;;;;;;;9.07;2.35;;;14.40;58.70;;;;;;5034179;28;20021;-75
2020/12/31 02:29:15;;;;;;;5.25;2.53;;;14.40;58.80;;;;;;5033362;28;20340;-74
2020/12/31 02:31:43;;;;;;;7.25;2.28;;;14.40;59.00;;;;;;5036042;28;20054;-74
2020/12/31 02:34:10;;;;;;;10.57;3.67;;;14.40;58.90;;;;;;5036287;28;20032;-76
2020/12/31 02:36:39;;;;;;;6.65;2.10;;;14.40;59.20;;;;;;5035795;28;20079;-74
2020/12/31 02:39:13;;;;;;;8.93;2.50;;;14.40;59.50;;;;;;5034677;28;20467;-74
2020/12/31 02:41:40;;;;;;;14.10;3.83;;;14.50;59.10;;;;;;5035945;28;20030;-76
2020/12/31 02:44:08;;;;;;;18.35;3.28;;;14.80;58.20;;;;;;5036810;28;20025;-75
2020/12/31 02:46:34;;;;;;;14.15;3.05;;;14.90;58.20;;;;;;5029751;28;20366;-74
2020/12/31 02:49:01;;;;;;;16.95;3.67;;;14.80;58.30;;;;;;5032347;28;20032;-74
2020/12/31 02:51:28;;;;;;;15.13;3.45;;;14.70;58.20;;;;;;5039291;28;20358;-75
2020/12/31 02:53:55;;;;;;;19.08;4.82;;;14.70;58.50;;;;;;5037672;28;20025;-75
2020/12/31 02:56:23;;;;;;;19.00;5.40;;;14.60;58.90;;;;;;5043801;28;20061;-75
2020/12/31 02:58:50;;;;;;;14.25;4.72;;;14.40;59.60;;;;;;5041860;28;20020;-75
2020/12/31 03:01:21;;;;;;;18.40;3.78;;;14.30;59.90;;;;;;5039713;28;20037;-74
2020/12/31 03:03:48;;;;;;;10.98;4.03;;;14.20;60.50;;;;;;5036247;28;20032;-76
2020/12/31 03:06:14;;;;;;;20.63;4.68;;;14.20;60.60;;;;;;5034846;28;20328;-76
2020/12/31 03:08:41;;;;;;;22.85;5.35;;;14.20;61.10;;;;;;5033880;28;20124;-75
2020/12/31 03:11:16;;;;;;;20.58;5.05;;;14.20;60.80;;;;;;5035198;28;20212;-75
2020/12/31 03:13:43;;;;;;;20.13;4.53;;;14.20;60.90;;;;;;5043273;28;20026;-75
2020/12/31 03:16:09;;;;;;;17.88;4.32;;;14.30;60.50;;;;;;5033462;28;20026;-75
2020/12/31 03:18:36;;;;;;;16.88;5.20;;;14.10;60.60;;;;;;5032137;28;20044;-76
2020/12/31 03:21:02;;;;;;;19.45;4.95;;;14.30;61.40;;;;;;5033318;28;20168;-76
2020/12/31 03:23:29;;;;;;;16.98;3.50;;;14.20;61.80;;;;;;5036934;28;20029;-72
2020/12/31 03:25:55;;;;;;;17.17;5.60;;;14.00;62.20;;;;;;5038357;28;20100;-74
2020/12/31 03:28:21;;;;;;;17.90;3.42;;;14.00;61.80;;;;;;5041253;28;21610;-73
2020/12/31 03:30:48;;;;;;;15.57;3.85;;;14.30;62.30;;;;;;5036924;28;20073;-72
2020/12/31 03:33:16;;;;;;;18.40;3.38;;;14.20;62.50;;;;;;5047160;28;20021;-74
2020/12/31 03:35:48;;;;;;;20.10;4.10;;;14.10;62.00;;;;;;5041216;28;20439;-73
2020/12/31 03:38:16;;;;;;;12.82;4.20;;;14.10;62.10;;;;;;5031828;28;20148;-71
2020/12/31 03:40:43;;;;;;;12.52;3.97;;;14.00;62.70;;;;;;5044907;28;20366;-74
2020/12/31 03:43:10;;;;;;;14.45;4.18;;;14.00;62.50;;;;;;5029080;28;20030;-74
2020/12/31 03:45:38;;;;;;;18.23;4.32;;;14.10;62.90;;;;;;5032301;28;20022;-74
2020/12/31 03:48:04;;;;;;;17.85;4.70;;;14.10;63.20;;;;;;5036171;28;20136;-74
2020/12/31 03:50:32;;;;;;;11.55;3.05;;;14.00;62.70;;;;;;5036735;28;20375;-75
2020/12/31 03:52:58;;;;;;;10.82;3.38;;;14.00;63.20;;;;;;5035110;28;20043;-74
2020/12/31 03:55:25;;;;;;;11.45;3.53;;;13.90;63.60;;;;;;5033496;28;20021;-74
2020/12/31 03:57:51;;;;;;;9.77;3.30;;;13.80;64.30;;;;;;5033067;28;20021;-74
2020/12/31 04:00:18;;;;;;;7.75;3.30;;;13.80;64.50;;;;;;5031545;28;20021;-73
2020/12/31 04:02:44;;;;;;;7.18;2.60;;;13.70;64.80;;;;;;5034578;28;20403;-71
2020/12/31 04:05:11;;;;;;;13.38;4.15;;;13.70;64.90;;;;;;5037264;28;20021;-74
2020/12/31 04:07:37;;;;;;;7.80;3.75;;;13.70;64.90;;;;;;5047537;28;20021;-73
2020/12/31 04:10:05;;;;;;;12.25;5.10;;;13.70;65.20;;;;;;5037171;28;20029;-74
2020/12/31 04:12:31;;;;;;;13.63;4.78;;;13.60;66.40;;;;;;5034993;28;20497;-74
2020/12/31 04:14:58;;;;;;;12.10;4.03;;;13.70;65.60;;;;;;5040202;28;20020;-73
2020/12/31 04:17:24;;;;;;;13.73;3.53;;;13.80;65.30;;;;;;5035395;28;20026;-74
2020/12/31 04:19:50;;;;;;;6.85;2.95;;;13.70;65.30;;;;;;5035004;28;20547;-72
2020/12/31 04:22:17;;;;;;;9.95;4.05;;;13.80;65.00;;;;;;5039827;28;20044;-74
2020/12/31 04:24:44;;;;;;;10.52;3.58;;;13.90;64.90;;;;;;5029084;28;20018;-74
2020/12/31 04:27:10;;;;;;;8.73;3.65;;;13.90;64.90;;;;;;5037129;28;20025;-74
2020/12/31 04:29:37;;;;;;;10.48;3.70;;;13.90;65.10;;;;;;5042548;28;20029;-74
2020/12/31 04:32:04;;;;;;;15.27;3.60;;;14.00;64.80;;;;;;5034965;28;20033;-74
2020/12/31 04:34:30;;;;;;;8.90;3.53;;;13.80;66.70;;;;;;5031483;28;20037;-74
2020/12/31 04:36:57;;;;;;;7.75;3.38;;;13.90;65.60;;;;;;5034736;28;20427;-73
2020/12/31 04:39:23;;;;;;;9.43;3.60;;;13.90;65.80;;;;;;5034563;28;20028;-73
2020/12/31 04:41:50;;;;;;;13.43;3.60;;;14.00;64.00;;;;;;5034608;28;20032;-73
2020/12/31 04:44:16;;;;;;;13.00;3.45;;;14.00;63.90;;;;;;5039328;28;20075;-72
2020/12/31 04:46:53;;;;;;;5.90;3.33;;;14.10;65.10;;;;;;5041270;28;20025;-73
2020/12/31 04:49:36;;;;;;;11.95;2.78;;;13.90;67.00;;;;;;5037895;28;20018;-73
2020/12/31 04:52:04;;;;;;;5.60;2.55;;;13.90;66.30;;;;;;5027794;28;20034;-73
2020/12/31 04:54:32;;;;;;;4.30;1.90;;;13.80;67.20;;;;;;5052824;28;20029;-73
2020/12/31 04:56:58;;;;;;;3.80;1.48;;;13.80;68.00;;;;;;5033721;28;20030;-73
2020/12/31 04:59:25;;;;;;;2.38;1.80;;;13.70;68.30;;;;;;5016402;28;20105;-73
2020/12/31 05:01:51;;;;;;;5.68;2.22;;;13.70;67.90;;;;;;5051396;28;20100;-74
2020/12/31 05:04:17;;;;;;;5.75;1.85;;;13.70;68.30;;;;;;5043672;28;20075;-74
2020/12/31 05:06:45;;;;;;;2.47;1.30;;;13.80;67.00;;;;;;5042351;28;20041;-73
2020/12/31 05:09:21;;;;;;;2.53;1.58;;;13.90;67.30;;;;;;5032524;28;20064;-74
2020/12/31 05:11:53;;;;;;;1.95;1.63;;;14.10;65.90;;;;;;5037427;28;20032;-73
2020/12/31 05:14:30;;;;;;;4.88;1.30;;;14.10;67.30;;;;;;5035276;28;20032;-73
2020/12/31 05:17:16;;;;;;;4.20;1.45;;;14.00;66.00;;;;;;5039456;28;20211;-74
2020/12/31 05:19:42;;;;;;;2.67;1.65;;;14.00;66.70;;;;;;5036699;28;20112;-73
2020/12/31 05:22:20;;;;;;;6.95;1.70;;;13.90;67.40;;;;;;5037147;28;20028;-73
2020/12/31 05:24:51;;;;;;;6.20;1.48;;;13.90;67.00;;;;;;5035570;28;20072;-72
2020/12/31 05:27:23;;;;;;;2.00;1.40;;;14.10;67.30;;;;;;5038081;28;20032;-73
2020/12/31 05:30:07;;;;;;;2.45;1.20;;;13.80;69.50;;;;;;5036685;28;20026;-74
2020/12/31 05:32:38;;;;;;;2.13;1.30;;;13.60;70.10;;;;;;5035442;28;20479;-72
2020/12/31 05:35:18;;;;;;;2.47;1.20;;;13.60;69.20;;;;;;5030711;28;20155;-73
2020/12/31 05:37:45;;;;;;;1.73;0.90;;;13.50;70.80;;;;;;5038840;28;20033;-72
2020/12/31 05:40:13;;;;;;;3.78;1.52;;;13.50;69.20;;;;;;5040426;28;20454;-72
2020/12/31 05:42:42;;;;;;;0.93;0.93;;;13.50;67.60;;;;;;5033539;28;20708;-74
2020/12/31 05:45:17;;;;;;;3.60;1.30;;;13.70;67.60;;;;;;5016791;28;20088;-73
2020/12/31 05:47:48;;;;;;;2.67;1.20;;;13.80;67.20;;;;;;5036972;28;20366;-73
2020/12/31 05:50:20;;;;;;;1.75;1.63;;;13.80;67.10;;;;;;5043225;28;20035;-73
2020/12/31 05:52:47;;;;;;;1.30;1.05;;;13.80;67.00;;;;;;5040367;28;20091;-73
2020/12/31 05:55:25;;;;;;;1.35;1.23;;;13.60;69.20;;;;;;5031736;28;20043;-72
2020/12/31 05:57:55;;;;;;;1.77;1.48;;;13.60;67.20;;;;;;5029090;28;20028;-73
2020/12/31 06:00:27;;;;;;;3.92;1.77;;;13.60;68.30;;;;;;5038555;28;20030;-73
2020/12/31 06:03:00;;;;;;;3.08;2.08;;;13.70;68.50;;;;;;5031653;28;20025;-74
2020/12/31 06:05:28;;;;;;;2.70;1.40;;;13.60;68.70;;;;;;5038129;28;20423;-74
2020/12/31 06:07:56;;;;;;;3.78;1.45;;;13.70;69.30;;;;;;5048241;28;20040;-72
2020/12/31 06:10:30;;;;;;;1.50;1.40;;;13.80;70.50;;;;;;5037316;28;20036;-73
2020/12/31 06:13:04;;;;;;;5.22;1.98;;;13.90;69.90;;;;;;5035835;28;20083;-73
2020/12/31 06:15:36;;;;;;;1.60;1.50;;;14.00;69.70;;;;;;5036894;28;20157;-73
2020/12/31 06:18:04;;;;;;;3.10;2.03;;;14.00;70.00;;;;;;5030467;28;20037;-74
2020/12/31 06:20:32;;;;;;;3.25;1.75;;;14.00;69.70;;;;;;5037895;28;20438;-73
2020/12/31 06:23:01;;;;;;;2.38;1.30;;;13.90;69.50;;;;;;5042674;28;20029;-72
2020/12/31 06:25:38;;;;;;;3.60;1.35;;;13.90;70.20;;;;;;5038646;28;20026;-73
2020/12/31 06:28:10;;;;;;;3.45;1.27;;;14.00;71.00;;;;;;5035357;28;20030;-73
2020/12/31 06:30:39;;;;;;;1.58;1.48;;;14.00;70.50;;;;;;5037599;28;20112;-74
2020/12/31 06:33:21;;;;;;;2.40;1.33;;;14.00;70.00;;;;;;5044153;28;20425;-73
2020/12/31 06:35:49;;;;;;;3.65;1.75;;;14.10;70.50;;;;;;5029574;28;20029;-73
2020/12/31 06:38:27;;;;;;;3.60;1.70;;;14.10;70.50;;;;;;5038459;28;20094;-73
2020/12/31 06:40:53;;;;;;;3.10;1.35;;;14.20;71.00;;;;;;5039463;28;20017;-74
2020/12/31 06:43:28;;;;;;;3.53;1.63;;;14.20;70.30;;;;;;5030442;28;20103;-73
2020/12/31 06:45:55;;;;;;;2.22;1.23;;;14.30;71.20;;;;;;5050833;28;20751;-74
2020/12/31 06:48:27;;;;;;;2.70;1.30;;;14.30;70.90;;;;;;5039833;28;20119;-73
2020/12/31 06:50:57;;;;;;;;;;;14.30;71.00;;;;;;5033682;28;20444;-72
2020/12/31 06:53:31;;;;;;;5.05;1.42;;;14.30;71.30;;;;;;5036171;28;19913;-73
2020/12/31 06:56:00;;;;;;;1.20;0.95;;;14.30;71.60;;;;;;5039225;28;20025;-73
2020/12/31 06:58:26;;;;;;;4.05;1.52;;;14.30;71.10;;;;;;5045869;28;20021;-73
2020/12/31 07:00:54;;;;;;;6.88;1.65;;;14.30;71.40;;;;;;5048784;28;20452;-74
2020/12/31 07:03:44;;;;;;;8.55;1.95;;;14.30;72.00;;;;;;5046497;28;20025;-74
2020/12/31 07:06:22;;;;;;;8.20;2.20;;;14.30;71.60;;;;;;5034011;28;20348;-73
2020/12/31 07:08:54;;;;;;;9.77;1.98;;;14.30;71.60;;;;;;5036371;28;20447;-73
2020/12/31 07:11:33;;;;;;;12.65;2.15;;;14.40;71.60;;;;;;5039001;28;20053;-74
2020/12/31 07:14:00;;;;;;;11.20;3.10;;;14.40;71.50;;;;;;5034752;28;20032;-74
2020/12/31 07:16:41;;;;;;;12.70;3.03;;;14.40;71.50;;;;;;5038471;28;20036;-74
2020/12/31 07:19:07;;;;;;;15.23;3.38;;;14.40;71.70;;;;;;5035109;28;20060;-73
2020/12/31 07:21:37;;;;;;;16.35;5.72;;;14.40;72.20;;;;;;5037537;28;20040;-73
2020/12/31 07:24:52;;;;;;;22.67;2.92;;;14.40;72.70;;;;;;5042564;28;20028;-73
2020/12/31 07:27:29;;;;;;;18.35;3.60;;;14.50;71.90;;;;;;4964172;28;20402;-73
2020/12/31 07:30:03;;;;;;;15.73;3.35;;;14.50;72.30;;;;;;4973339;28;20030;-73
2020/12/31 07:33:00;;;;;;;9.38;2.47;;;14.60;72.30;;;;;;5014218;28;20053;-72
2020/12/31 07:35:31;;;;;;;14.60;3.42;;;14.60;72.50;;;;;;5038351;28;20457;-74
2020/12/31 07:38:07;;;;;;;12.95;3.42;;;14.60;72.30;;;;;;5038372;28;20078;-74
2020/12/31 07:40:35;;;;;;;13.07;3.33;;;14.70;71.90;;;;;;5039229;28;20030;-73
2020/12/31 07:43:03;;;;;;;10.98;2.45;;;14.70;72.80;;;;;;5047519;28;20045;-74
2020/12/31 07:45:34;;;;;;;16.88;2.78;;;14.60;72.70;;;;;;5037534;28;20363;-73
2020/12/31 07:48:01;;;;;;;8.02;2.05;;;14.70;72.90;;;;;;5032651;28;20108;-73
2020/12/31 07:50:28;;;;;;;9.93;2.30;;;14.70;73.40;;;;;;5034050;28;20028;-73
2020/12/31 07:52:55;;;;;;;10.68;2.17;;;14.70;73.00;;;;;;5043820;28;20029;-74
2020/12/31 07:55:24;;;;;;;7.70;1.80;;;14.70;73.20;;;;;;5039011;28;20041;-74
2020/12/31 07:57:50;;;;;;;6.65;2.08;;;15.00;73.10;;;;;;5035781;28;20021;-73
2020/12/31 08:00:21;;;;;;;8.18;2.30;;;14.90;73.20;;;;;;5043735;28;20025;-73
2020/12/31 08:02:54;;;;;;;14.10;2.90;;;14.70;74.10;;;;;;5036350;28;20090;-73
2020/12/31 08:05:22;;;;;;;14.98;3.70;;;14.80;73.40;;;;;;5039019;28;20021;-72
2020/12/31 08:07:56;;;;;;;11.35;3.28;;;15.00;73.10;;;;;;5034425;28;20055;-73
2020/12/31 08:10:24;;;;;;;25.63;5.13;;;14.90;73.00;;;;;;5041598;28;20025;-72
2020/12/31 08:12:55;;;;;;;26.23;4.82;;;14.90;73.00;;;;;;5036024;28;20371;-74
2020/12/31 08:15:23;;;;;;;19.00;3.72;;;14.80;73.20;;;;;;5031404;28;20757;-75
2020/12/31 08:17:55;;;;;;;32.38;5.13;;;14.70;74.10;;;;;;5040477;28;20055;-73
2020/12/31 08:20:23;;;;;;;23.27;5.28;;;14.80;73.30;;;;;;5038895;28;20025;-73
2020/12/31 08:22:56;;;;;;;29.90;4.95;;;14.80;73.20;;;;;;5036767;28;20413;-73
2020/12/31 08:25:35;;;;;;;36.15;6.82;;;14.70;74.60;;;;;;5038233;28;20472;-73
2020/12/31 08:28:04;;;;;;;35.10;5.95;;;14.90;72.80;;;;;;5034837;28;20025;-73
2020/12/31 08:30:33;;;;;;;41.22;6.97;;;14.90;74.00;;;;;;5027375;28;20033;-74
2020/12/31 08:33:02;;;;;;;22.95;5.00;;;14.90;73.70;;;;;;5036859;28;20022;-73
2020/12/31 08:35:37;;;;;;;25.48;6.18;;;14.70;74.30;;;;;;5038648;28;20106;-73
2020/12/31 08:38:25;;;;;;;25.95;5.80;;;15.00;74.70;;;;;;5039641;28;20032;-73
2020/12/31 08:40:56;;;;;;;34.67;7.10;;;15.00;72.90;;;;;;5035866;28;20030;-74
2020/12/31 08:43:36;;;;;;;39.30;7.85;;;15.10;71.40;;;;;;5040289;28;20351;-73
2020/12/31 08:46:05;;;;;;;56.75;10.85;;;14.90;72.30;;;;;;5032760;28;20474;-74
2020/12/31 08:48:33;;;;;;;50.22;10.20;;;15.10;69.80;;;;;;5038990;28;20033;-74
2020/12/31 08:51:08;;;;;;;40.13;7.57;;;14.90;70.50;;;;;;5035455;28;20029;-73
2020/12/31 08:53:56;;;;;;;41.85;10.18;;;14.90;70.00;;;;;;5036235;28;20036;-74
2020/12/31 08:56:28;;;;;;;49.38;8.95;;;14.90;70.50;;;;;;5032641;28;20120;-72
2020/12/31 08:59:06;;;;;;;;;;;14.70;70.60;;;;;;5032320;28;20049;-73
2020/12/31 09:01:33;;;;;;;41.65;9.60;;;14.70;70.40;;;;;;5033414;28;20251;-74
2020/12/31 09:04:06;;;;;;;43.28;8.35;;;14.60;71.20;;;;;;5037597;28;20029;-74
2020/12/31 09:06:33;;;;;;;43.58;8.40;;;14.40;70.90;;;;;;5034420;28;20029;-73
2020/12/31 09:08:59;;;;;;;46.67;8.45;;;14.20;71.00;;;;;;5048495;28;20029;-73
2020/12/31 09:11:28;;;;;;;50.72;11.75;;;14.20;71.00;;;;;;5035145;28;20032;-73
2020/12/31 09:14:05;;;;;;;48.05;9.30;;;14.30;70.80;;;;;;5023803;28;20427;-73
2020/12/31 09:16:31;;;;;;;54.75;10.52;;;14.30;70.50;;;;;;5033264;28;20071;-73
2020/12/31 09:19:00;;;;;;;55.28;10.40;;;14.00;71.20;;;;;;5032915;28;20359;-73
2020/12/31 09:21:30;;;;;;;44.17;10.73;;;13.90;71.50;;;;;;5031322;28;20028;-73
2020/12/31 09:23:57;;;;;;;55.22;10.07;;;13.90;71.50;;;;;;5033264;28;20036;-74
2020/12/31 09:26:30;;;;;;;53.08;9.30;;;13.90;71.60;;;;;;5036111;28;21489;-75
2020/12/31 09:28:56;;;;;;;;;;;13.80;71.20;;;;;;5033265;28;20087;-75
2020/12/31 09:31:22;;;;;;;50.30;9.45;;;13.80;71.30;;;;;;5034169;28;20327;-73
2020/12/31 09:33:50;;;;;;;49.47;9.23;;;13.60;71.50;;;;;;5035205;28;20121;-74
2020/12/31 09:36:24;;;;;;;40.10;8.73;;;13.70;70.80;;;;;;5029693;28;20024;-75
2020/12/31 09:38:51;;;;;;;35.10;8.07;;;13.90;69.60;;;;;;5034507;28;20415;-74
2020/12/31 09:41:18;;;;;;;46.60;9.20;;;13.80;69.40;;;;;;5047238;28;20063;-74
2020/12/31 09:43:45;;;;;;;41.42;10.75;;;13.70;69.20;;;;;;5026750;28;20042;-73
2020/12/31 09:46:16;;;;;;;59.75;10.50;;;13.70;69.40;;;;;;5041320;28;20095;-74
2020/12/31 09:48:42;;;;;;;44.70;10.13;;;13.90;68.00;;;;;;5041693;28;20021;-73
2020/12/31 09:51:09;;;;;;;51.97;10.23;;;14.00;67.70;;;;;;5043651;28;20021;-73
2020/12/31 09:53:36;;;;;;;42.10;9.20;;;13.80;68.30;;;;;;5051133;28;20040;-73
2020/12/31 09:56:03;;;;;;;51.58;9.93;;;13.70;69.00;;;;;;5038667;28;20075;-73
2020/12/31 09:58:29;;;;;;;45.95;8.25;;;13.70;68.70;;;;;;5032951;28;20028;-73
2020/12/31 10:00:56;;;;;;;53.28;9.98;;;13.70;69.30;;;;;;5040145;28;20018;-74
2020/12/31 10:03:22;;;;;;;52.28;10.40;;;13.50;69.90;;;;;;5031126;28;20333;-73
2020/12/31 10:05:48;;;;;;;41.17;9.18;;;13.60;70.00;;;;;;5034250;28;20423;-73
2020/12/31 10:08:15;;;;;;;42.38;9.18;;;13.50;70.40;;;;;;5038361;28;20025;-73
2020/12/31 10:10:41;;;;;;;50.42;10.52;;;13.40;70.80;;;;;;5027774;28;20030;-74
2020/12/31 10:13:07;;;;;;;61.97;11.85;;;13.40;70.50;;;;;;5032792;28;20489;-74
2020/12/31 10:15:34;;;;;;;50.17;10.38;;;13.40;70.70;;;;;;5034167;28;20029;-74
2020/12/31 10:18:00;;;;;;;53.45;9.45;;;13.50;70.70;;;;;;5034236;28;20142;-73
2020/12/31 10:20:27;;;;;;;53.30;9.90;;;13.40;70.50;;;;;;5044678;28;20025;-73
2020/12/31 10:22:53;;;;;;;52.25;9.77;;;13.30;71.20;;;;;;5035809;28;20028;-74
2020/12/31 10:25:20;;;;;;;51.55;9.13;;;13.30;70.60;;;;;;5032131;28;20025;-73
2020/12/31 10:27:47;;;;;;;50.30;8.82;;;13.40;70.50;;;;;;5032502;28;20026;-74
2020/12/31 10:30:13;;;;;;;55.85;8.18;;;13.30;71.00;;;;;;5035798;28;20033;-74
2020/12/31 10:32:39;;;;;;;49.75;8.52;;;13.20;71.10;;;;;;5036619;28;20029;-73
2020/12/31 10:35:06;;;;;;;57.28;14.32;;;13.30;71.00;;;;;;5034806;28;20079;-73
2020/12/31 10:37:32;;;;;;;63.15;11.77;;;13.20;71.30;;;;;;5032607;28;20033;-73
2020/12/31 10:39:59;;;;;;;64.25;13.07;;;13.20;70.60;;;;;;5034001;28;20087;-74
2020/12/31 10:42:25;;;;;;;57.95;12.00;;;13.20;70.60;;;;;;5032691;28;20585;-75
2020/12/31 10:44:51;;;;;;;53.78;7.97;;;13.10;71.30;;;;;;5040295;28;20156;-74
2020/12/31 10:47:18;;;;;;;38.35;9.18;;;13.00;71.60;;;;;;5032632;28;20471;-74
2020/12/31 10:49:44;;;;;;;67.85;12.02;;;13.10;71.20;;;;;;5033010;28;20481;-74
2020/12/31 10:52:11;;;;;;;47.80;8.95;;;13.00;71.20;;;;;;5040500;28;20029;-73
2020/12/31 10:54:37;;;;;;;44.88;10.10;;;13.00;71.00;;;;;;5034527;28;20086;-74
2020/12/31 10:57:04;;;;;;;61.72;10.57;;;13.00;71.10;;;;;;5032380;28;20021;-74
2020/12/31 10:59:30;;;;;;;58.05;14.00;;;13.00;71.10;;;;;;5037432;28;20029;-73
2020/12/31 11:01:56;;;;;;;53.40;10.32;;;13.00;71.20;;;;;;5039111;28;20020;-74
2020/12/31 11:04:23;;;;;;;46.65;10.18;;;12.90;71.30;;;;;;5037777;28;20029;-73
2020/12/31 11:06:49;;;;;;;53.10;11.30;;;13.00;70.10;;;;;;5032397;28;20100;-73
2020/12/31 11:09:16;;;;;;;47.53;8.82;;;13.10;70.20;;;;;;5031045;28;20371;-73
2020/12/31 11:11:42;;;;;;;50.35;9.38;;;13.10;70.00;;;;;;5035518;28;20100;-73
2020/12/31 11:14:10;;;;;;;39.95;9.77;;;13.00;70.50;;;;;;5035244;28;20026;-73
2020/12/31 11:16:36;;;;;;;47.13;9.75;;;13.00;70.60;;;;;;5036681;28;20040;-74
2020/12/31 11:19:04;;;;;;;51.15;7.90;;;13.00;70.60;;;;;;5050104;28;20032;-74
2020/12/31 11:21:30;;;;;;;65.20;11.90;;;13.10;69.60;;;;;;5051169;28;20078;-73
2020/12/31 11:23:57;;;;;;;53.30;8.48;;;12.90;70.80;;;;;;5049852;28;20113;-74
2020/12/31 11:26:24;;;;;;;48.60;10.55;;;12.90;70.30;;;;;;5036985;28;20075;-74
2020/12/31 11:28:51;;;;;;;52.17;11.18;;;12.90;70.20;;;;;;5042643;28;20033;-73
2020/12/31 11:31:25;;;;;;;43.15;8.25;;;12.90;70.00;;;;;;5038909;28;20074;-74
2020/12/31 11:33:52;;;;;;;49.90;9.90;;;12.90;70.00;;;;;;5035937;28;20056;-73
2020/12/31 11:36:21;;;;;;;42.95;10.55;;;12.80;70.30;;;;;;5035523;28;20061;-73
2020/12/31 11:38:52;;;;;;;38.92;7.22;;;12.80;70.10;;;;;;5038076;28;20069;-74
2020/12/31 11:41:19;;;;;;;47.63;10.98;;;12.80;69.70;;;;;;5049220;28;20503;-75
2020/12/31 11:43:46;;;;;;;42.22;9.48;;;12.90;69.50;;;;;;5046369;28;20112;-73
2020/12/31 11:46:12;;;;;;;40.67;8.57;;;13.10;67.60;;;;;;5040324;28;20040;-73
2020/12/31 11:48:39;;;;;;;40.15;9.98;;;12.90;68.30;;;;;;5038847;28;20361;-73
2020/12/31 11:51:09;;;;;;;54.92;9.35;;;12.90;68.60;;;;;;5042556;28;20036;-74
2020/12/31 11:53:37;;;;;;;35.20;7.07;;;12.90;68.60;;;;;;5038342;28;20036;-73
2020/12/31 11:56:04;;;;;;;46.17;9.25;;;12.70;68.70;;;;;;5036741;28;20340;-73
2020/12/31 11:58:30;;;;;;;47.00;10.30;;;12.70;68.60;;;;;;5040664;28;20367;-73
2020/12/31 12:00:57;;;;;;;37.17;7.80;;;12.90;67.10;;;;;;5036607;28;20053;-73
2020/12/31 12:03:24;;;;;;;40.13;7.75;;;12.80;67.90;;;;;;5038029;28;20163;-74
2020/12/31 12:05:51;;;;;;;40.35;7.72;;;12.80;67.90;;;;;;5054522;28;20021;-73
2020/12/31 12:08:18;;;;;;;47.75;11.20;;;12.70;68.10;;;;;;5035938;28;20103;-73
2020/12/31 12:10:51;;;;;;;54.85;8.45;;;12.80;66.70;;;;;;5051352;28;20370;-74
2020/12/31 12:13:17;;;;;;;39.75;8.15;;;12.70;67.50;;;;;;5048661;28;20087;-74
2020/12/31 12:15:44;;;;;;;41.35;9.68;;;12.60;67.80;;;;;;5033256;28;20022;-73
2020/12/31 12:18:10;;;;;;;36.58;8.90;;;12.70;67.20;;;;;;5032898;28;20368;-73
2020/12/31 12:20:37;;;;;;;37.30;8.88;;;12.60;67.80;;;;;;5048132;28;20026;-73
2020/12/31 12:23:04;;;;;;;45.55;8.07;;;12.50;68.40;;;;;;5035651;28;20025;-75
2020/12/31 12:25:30;;;;;;;39.55;10.48;;;12.70;66.30;;;;;;5033534;28;20025;-75
2020/12/31 12:27:57;;;;;;;42.03;9.05;;;12.60;66.80;;;;;;5036478;28;20072;-74
2020/12/31 12:30:23;;;;;;;39.47;8.75;;;12.50;66.90;;;;;;5033406;28;20097;-74
2020/12/31 12:32:50;;;;;;;26.17;7.13;;;12.60;67.10;;;;;;5036468;28;20116;-75
2020/12/31 12:35:16;;;;;;;45.00;9.13;;;12.50;67.10;;;;;;5034474;28;20034;-75
2020/12/31 12:37:43;;;;;;;39.95;8.55;;;12.40;67.00;;;;;;5043997;28;20421;-74
2020/12/31 12:40:10;;;;;;;28.45;7.20;;;12.40;67.10;;;;;;5047032;28;20017;-75
2020/12/31 12:42:36;;;;;;;39.80;9.02;;;12.40;66.60;;;;;;5050190;28;20459;-79
2020/12/31 12:45:05;;;;;;;33.53;6.78;;;12.40;67.20;;;;;;5035690;28;20029;-76
2020/12/31 12:47:35;;;;;;;34.80;7.70;;;12.30;67.30;;;;;;5041495;28;20021;-75
2020/12/31 12:50:06;;;;;;;42.03;9.75;;;12.20;67.10;;;;;;5037112;28;20029;-78